ETH706A HAAB-EDDF
Flight info
| Callsign | ETH706A |
|---|---|
| Flight time | N/A |
| Altitude | 34000 |
| Route | LABLA5A LABLA DCT AMUDO T124 ALRAP/N0501F350 DCT KSL/N0499F360 DCT TOMRU P751 KUNKI/N0488F380 T55 TANSA UL613 KOR DCT DIMIS DCT TRN DCT PERAN DCT GILUK DCT NOVLO DCT ZAG DCT PETOV DCT GOLVA DCT SIMBA DCT NIMDI DCT ERNAS T161 DEBHI DEBHI1C |
| Aircraft | A35K/H-SDE2E3GHIJ3J4J5LM1ORWXY/LB1D1 |
Departure
| Time | N/A |
|---|---|
| Airport | Addis Ababa Bole International Airport (HAAB) |
Arrival
| Time | 2026-05-01 15:15 |
|---|---|
| Airport | Frankfurt Main Airport (EDDF) |
| Time | Latitude | Longitude | Altitude | Speed | Heading |
|---|---|---|---|---|---|
| 2026-05-01 13:59 | 47.38696 | 14.50901 | 40349 ft | 474 kts | 314° |
| 2026-05-01 14:00 | 47.42988 | 14.43497 | 40355 ft | 474 kts | 314° |
| 2026-05-01 14:00 | 47.47264 | 14.36100 | 40353 ft | 474 kts | 314° |
| 2026-05-01 14:01 | 47.50741 | 14.30071 | 40346 ft | 474 kts | 314° |
| 2026-05-01 14:01 | 47.55716 | 14.21423 | 40349 ft | 474 kts | 314° |
| 2026-05-01 14:02 | 47.59947 | 14.14044 | 40350 ft | 474 kts | 314° |
| 2026-05-01 14:02 | 47.64161 | 14.06676 | 40355 ft | 474 kts | 314° |
| 2026-05-01 14:03 | 47.67730 | 14.00419 | 40351 ft | 474 kts | 314° |
| 2026-05-01 14:03 | 47.71939 | 13.93026 | 40356 ft | 475 kts | 314° |
| 2026-05-01 14:04 | 47.76215 | 13.85490 | 40353 ft | 475 kts | 314° |
| 2026-05-01 14:04 | 47.80472 | 13.77966 | 40350 ft | 475 kts | 314° |
| 2026-05-01 14:05 | 47.84708 | 13.70461 | 40349 ft | 475 kts | 313° |
| 2026-05-01 14:05 | 47.88960 | 13.62906 | 40337 ft | 475 kts | 313° |
| 2026-05-01 14:06 | 47.93202 | 13.55348 | 40348 ft | 475 kts | 313° |
| 2026-05-01 14:06 | 47.97436 | 13.47780 | 40352 ft | 475 kts | 313° |
| 2026-05-01 14:07 | 48.01670 | 13.40191 | 40352 ft | 475 kts | 313° |
| 2026-05-01 14:08 | 48.07993 | 13.28819 | 40347 ft | 474 kts | 313° |
| 2026-05-01 14:08 | 48.12191 | 13.21243 | 40355 ft | 474 kts | 313° |
| 2026-05-01 14:09 | 48.16395 | 13.13637 | 40361 ft | 474 kts | 313° |
| 2026-05-01 14:09 | 48.20556 | 13.06084 | 40357 ft | 474 kts | 313° |
| 2026-05-01 14:10 | 48.24481 | 12.98093 | 40357 ft | 477 kts | 306° |
| 2026-05-01 14:10 | 48.28001 | 12.89897 | 40350 ft | 477 kts | 305° |
| 2026-05-01 14:11 | 48.31522 | 12.81540 | 40359 ft | 476 kts | 305° |
| 2026-05-01 14:11 | 48.36755 | 12.69063 | 40358 ft | 476 kts | 305° |
| 2026-05-01 14:12 | 48.40285 | 12.60629 | 40361 ft | 476 kts | 305° |
| 2026-05-01 14:12 | 48.43816 | 12.52174 | 40362 ft | 476 kts | 305° |
| 2026-05-01 14:13 | 48.47329 | 12.43734 | 40360 ft | 477 kts | 305° |
| 2026-05-01 14:13 | 48.50843 | 12.35268 | 40364 ft | 476 kts | 305° |
| 2026-05-01 14:14 | 48.54362 | 12.26758 | 40365 ft | 477 kts | 304° |
| 2026-05-01 14:14 | 48.57856 | 12.18285 | 40351 ft | 476 kts | 304° |
| 2026-05-01 14:15 | 48.61342 | 12.09805 | 40358 ft | 476 kts | 304° |
| 2026-05-01 14:15 | 48.64823 | 12.01306 | 40356 ft | 476 kts | 304° |
| 2026-05-01 14:16 | 48.68298 | 11.92798 | 40350 ft | 476 kts | 304° |
| 2026-05-01 14:16 | 48.71771 | 11.84268 | 40347 ft | 475 kts | 304° |
| 2026-05-01 14:17 | 48.75229 | 11.75747 | 40350 ft | 475 kts | 304° |
| 2026-05-01 14:17 | 48.78564 | 11.67309 | 40346 ft | 475 kts | 299° |
| 2026-05-01 14:18 | 48.80755 | 11.57803 | 40348 ft | 480 kts | 283° |
| 2026-05-01 14:18 | 48.81709 | 11.49641 | 40347 ft | 482 kts | 281° |
| 2026-05-01 14:19 | 48.82896 | 11.37886 | 40344 ft | 482 kts | 281° |
| 2026-05-01 14:19 | 48.84175 | 11.27986 | 40343 ft | 478 kts | 290° |
| 2026-05-01 14:20 | 48.89276 | 11.15305 | 40274 ft | 466 kts | 317° |
| 2026-05-01 14:20 | 48.91595 | 11.11853 | 39671 ft | 465 kts | 319° |
| 2026-05-01 14:21 | 48.93967 | 11.08514 | 38901 ft | 468 kts | 320° |
| 2026-05-01 14:21 | 48.96376 | 11.05203 | 38050 ft | 470 kts | 320° |
| 2026-05-01 14:21 | 48.98797 | 11.01895 | 37188 ft | 472 kts | 320° |
| 2026-05-01 14:22 | 49.03712 | 10.95088 | 35484 ft | 478 kts | 319° |
| 2026-05-01 14:22 | 49.06155 | 10.91665 | 34642 ft | 481 kts | 319° |
| 2026-05-01 14:22 | 49.08629 | 10.88183 | 33724 ft | 483 kts | 319° |
| 2026-05-01 14:22 | 49.11082 | 10.84728 | 32739 ft | 486 kts | 319° |
| 2026-05-01 14:23 | 49.13565 | 10.81213 | 31825 ft | 489 kts | 319° |
| 2026-05-01 14:23 | 49.16072 | 10.77655 | 30863 ft | 492 kts | 319° |
| 2026-05-01 14:23 | 49.18589 | 10.74076 | 29842 ft | 494 kts | 319° |
| 2026-05-01 14:23 | 49.21105 | 10.70460 | 28885 ft | 495 kts | 317° |
| 2026-05-01 14:24 | 49.23505 | 10.66688 | 28049 ft | 493 kts | 315° |
| 2026-05-01 14:24 | 49.25854 | 10.62913 | 27298 ft | 490 kts | 315° |
| 2026-05-01 14:24 | 49.28213 | 10.59142 | 26573 ft | 487 kts | 316° |
| 2026-05-01 14:24 | 49.30548 | 10.55427 | 25969 ft | 482 kts | 316° |
| 2026-05-01 14:25 | 49.32845 | 10.51784 | 25392 ft | 478 kts | 316° |
| 2026-05-01 14:25 | 49.35173 | 10.48064 | 24677 ft | 476 kts | 314° |
| 2026-05-01 14:25 | 49.37222 | 10.44167 | 24063 ft | 474 kts | 307° |
| 2026-05-01 14:25 | 49.39110 | 10.40071 | 23638 ft | 466 kts | 306° |
| 2026-05-01 14:26 | 49.40971 | 10.35971 | 23280 ft | 457 kts | 307° |
| 2026-05-01 14:26 | 49.44570 | 10.28051 | 22536 ft | 454 kts | 306° |
| 2026-05-01 14:26 | 49.46379 | 10.24073 | 22165 ft | 454 kts | 307° |
| 2026-05-01 14:27 | 49.48192 | 10.20079 | 21788 ft | 453 kts | 307° |
| 2026-05-01 14:27 | 49.49980 | 10.16133 | 21417 ft | 452 kts | 307° |
| 2026-05-01 14:27 | 49.51773 | 10.12169 | 21053 ft | 450 kts | 306° |
| 2026-05-01 14:28 | 49.55347 | 10.04263 | 20324 ft | 447 kts | 306° |
| 2026-05-01 14:28 | 49.57106 | 10.00356 | 19945 ft | 445 kts | 306° |
| 2026-05-01 14:28 | 49.58872 | 9.96431 | 19582 ft | 443 kts | 306° |
| 2026-05-01 14:28 | 49.60620 | 9.92545 | 19214 ft | 441 kts | 306° |
| 2026-05-01 14:29 | 49.62341 | 9.88704 | 18850 ft | 438 kts | 305° |
| 2026-05-01 14:29 | 49.64090 | 9.84793 | 18464 ft | 436 kts | 305° |
| 2026-05-01 14:30 | 49.69249 | 9.73234 | 17357 ft | 434 kts | 305° |
| 2026-05-01 14:30 | 49.70963 | 9.69385 | 16997 ft | 432 kts | 305° |
| 2026-05-01 14:30 | 49.72630 | 9.65639 | 16655 ft | 429 kts | 305° |
| 2026-05-01 14:31 | 49.75981 | 9.58094 | 15951 ft | 423 kts | 304° |
| 2026-05-01 14:31 | 49.77643 | 9.54335 | 15603 ft | 422 kts | 305° |
| 2026-05-01 14:31 | 49.79293 | 9.50600 | 15256 ft | 420 kts | 304° |
| 2026-05-01 14:31 | 49.80947 | 9.46849 | 14904 ft | 418 kts | 304° |
| 2026-05-01 14:32 | 49.82562 | 9.43182 | 14564 ft | 418 kts | 304° |
| 2026-05-01 14:32 | 49.84219 | 9.39417 | 14211 ft | 417 kts | 304° |
| 2026-05-01 14:32 | 49.85791 | 9.35680 | 13824 ft | 415 kts | 299° |
| 2026-05-01 14:32 | 49.86881 | 9.31600 | 13510 ft | 412 kts | 287° |
| 2026-05-01 14:33 | 49.87702 | 9.27363 | 13164 ft | 410 kts | 285° |
| 2026-05-01 14:33 | 49.88493 | 9.23144 | 12831 ft | 407 kts | 285° |
| 2026-05-01 14:33 | 49.89284 | 9.18954 | 12491 ft | 406 kts | 285° |
| 2026-05-01 14:33 | 49.90082 | 9.14732 | 12163 ft | 403 kts | 285° |
| 2026-05-01 14:34 | 49.90866 | 9.10593 | 11832 ft | 401 kts | 285° |
| 2026-05-01 14:34 | 49.91652 | 9.06451 | 11497 ft | 399 kts | 285° |
| 2026-05-01 14:34 | 49.92430 | 9.02351 | 11222 ft | 394 kts | 285° |
| 2026-05-01 14:34 | 49.93207 | 8.98282 | 11084 ft | 388 kts | 285° |
| 2026-05-01 14:35 | 49.93958 | 8.94343 | 10923 ft | 371 kts | 285° |
| 2026-05-01 14:35 | 49.94675 | 8.90585 | 10780 ft | 356 kts | 285° |
| 2026-05-01 14:35 | 49.95365 | 8.86961 | 10630 ft | 342 kts | 285° |
| 2026-05-01 14:35 | 49.96014 | 8.83547 | 10484 ft | 328 kts | 284° |
| 2026-05-01 14:36 | 49.96644 | 8.80218 | 10351 ft | 315 kts | 284° |
| 2026-05-01 14:36 | 49.97241 | 8.77062 | 10208 ft | 303 kts | 284° |
| 2026-05-01 14:36 | 49.97812 | 8.73913 | 10097 ft | 298 kts | 281° |
| 2026-05-01 14:36 | 49.97930 | 8.70861 | 9962 ft | 293 kts | 258° |
| 2026-05-01 14:37 | 49.97348 | 8.67844 | 9850 ft | 290 kts | 246° |
| 2026-05-01 14:37 | 49.96645 | 8.64984 | 9731 ft | 290 kts | 246° |
| 2026-05-01 14:37 | 49.95931 | 8.62044 | 9608 ft | 290 kts | 247° |
| 2026-05-01 14:37 | 49.95225 | 8.59119 | 9490 ft | 289 kts | 246° |
| 2026-05-01 14:38 | 49.94526 | 8.56221 | 9382 ft | 288 kts | 247° |
| 2026-05-01 14:38 | 49.93821 | 8.53295 | 9257 ft | 288 kts | 246° |
| 2026-05-01 14:38 | 49.93121 | 8.50403 | 9140 ft | 288 kts | 246° |
| 2026-05-01 14:38 | 49.92419 | 8.47492 | 9030 ft | 287 kts | 247° |
| 2026-05-01 14:39 | 49.91719 | 8.44571 | 8907 ft | 287 kts | 247° |
| 2026-05-01 14:39 | 49.91018 | 8.41674 | 8787 ft | 286 kts | 246° |
| 2026-05-01 14:39 | 49.90320 | 8.38799 | 8680 ft | 285 kts | 246° |
| 2026-05-01 14:39 | 49.89620 | 8.35899 | 8540 ft | 285 kts | 246° |
| 2026-05-01 14:40 | 49.88925 | 8.33036 | 8440 ft | 285 kts | 246° |
| 2026-05-01 14:40 | 49.88238 | 8.30205 | 8332 ft | 283 kts | 247° |
| 2026-05-01 14:40 | 49.87551 | 8.27356 | 7978 ft | 281 kts | 246° |
| 2026-05-01 14:40 | 49.86880 | 8.24598 | 7582 ft | 280 kts | 246° |
| 2026-05-01 14:41 | 49.86182 | 8.21747 | 7199 ft | 279 kts | 246° |
| 2026-05-01 14:41 | 49.85494 | 8.18918 | 6791 ft | 277 kts | 246° |
| 2026-05-01 14:41 | 49.84820 | 8.16142 | 6425 ft | 275 kts | 246° |
| 2026-05-01 14:41 | 49.84140 | 8.13363 | 6007 ft | 274 kts | 246° |
| 2026-05-01 14:42 | 49.83463 | 8.10606 | 5535 ft | 275 kts | 246° |
| 2026-05-01 14:42 | 49.82803 | 8.07879 | 5154 ft | 273 kts | 246° |
| 2026-05-01 14:42 | 49.82233 | 8.05074 | 4662 ft | 277 kts | 258° |
| 2026-05-01 14:42 | 49.82339 | 8.02271 | 4277 ft | 281 kts | 284° |
| 2026-05-01 14:43 | 49.83197 | 7.99798 | 4039 ft | 277 kts | 312° |
| 2026-05-01 14:43 | 49.84484 | 7.98216 | 3995 ft | 277 kts | 331° |
| 2026-05-01 14:43 | 49.86145 | 7.96825 | 3997 ft | 278 kts | 334° |
| 2026-05-01 14:43 | 49.87921 | 7.96115 | 4018 ft | 275 kts | 3° |
| 2026-05-01 14:44 | 49.89534 | 7.96795 | 4009 ft | 266 kts | 35° |
| 2026-05-01 14:44 | 49.91118 | 8.01043 | 4101 ft | 254 kts | 85° |
| 2026-05-01 14:44 | 49.91403 | 8.03799 | 4037 ft | 259 kts | 79° |
| 2026-05-01 14:45 | 49.91807 | 8.06501 | 3991 ft | 256 kts | 79° |
| 2026-05-01 14:45 | 49.92698 | 8.11454 | 3954 ft | 226 kts | 75° |
| 2026-05-01 14:45 | 49.93228 | 8.13680 | 3961 ft | 226 kts | 72° |
| 2026-05-01 14:46 | 49.93799 | 8.15923 | 3964 ft | 226 kts | 72° |
| 2026-05-01 14:46 | 49.94898 | 8.20483 | 3969 ft | 227 kts | 72° |
| 2026-05-01 14:46 | 49.95443 | 8.22753 | 3940 ft | 224 kts | 72° |
| 2026-05-01 14:47 | 49.95982 | 8.25011 | 3949 ft | 225 kts | 73° |
| 2026-05-01 14:47 | 49.96523 | 8.27284 | 3821 ft | 228 kts | 72° |
| 2026-05-01 14:47 | 49.97067 | 8.29553 | 3542 ft | 219 kts | 72° |
| 2026-05-01 14:48 | 49.98066 | 8.33725 | 2980 ft | 197 kts | 71° |
| 2026-05-01 14:48 | 49.98521 | 8.35633 | 2708 ft | 189 kts | 73° |
| 2026-05-01 14:48 | 49.99350 | 8.39111 | 2276 ft | 169 kts | 73° |
| 2026-05-01 14:49 | 50.00122 | 8.42359 | 1895 ft | 149 kts | 74° |
| 2026-05-01 14:49 | 50.00706 | 8.44787 | 1444 ft | 143 kts | 72° |
| 2026-05-01 14:50 | 50.01279 | 8.47110 | 1088 ft | 137 kts | 71° |
| 2026-05-01 14:50 | 50.02047 | 8.50371 | 731 ft | 141 kts | 75° |
| 2026-05-01 14:51 | 50.02387 | 8.51735 | 680 ft | 141 kts | 72° |
| 2026-05-01 14:51 | 50.03084 | 8.54920 | 898 ft | 184 kts | 76° |
| 2026-05-01 14:52 | 50.03847 | 8.58381 | 2944 ft | 152 kts | 74° |
| 2026-05-01 14:52 | 50.04224 | 8.60061 | 2771 ft | 181 kts | 73° |
| 2026-05-01 14:52 | 50.05111 | 8.64014 | 3379 ft | 214 kts | 74° |
| 2026-05-01 14:53 | 50.05628 | 8.66280 | 3804 ft | 232 kts | 73° |
| 2026-05-01 14:53 | 50.06161 | 8.68634 | 4357 ft | 240 kts | 74° |
| 2026-05-01 14:53 | 50.06720 | 8.71122 | 4848 ft | 255 kts | 73° |
| 2026-05-01 14:53 | 50.07299 | 8.73695 | 5320 ft | 263 kts | 74° |
| 2026-05-01 14:54 | 50.07897 | 8.76342 | 6110 ft | 263 kts | 74° |
| 2026-05-01 14:54 | 50.08496 | 8.79012 | 6826 ft | 267 kts | 73° |
| 2026-05-01 14:54 | 50.09114 | 8.81786 | 7484 ft | 272 kts | 73° |
| 2026-05-01 14:54 | 50.09660 | 8.84256 | 8123 ft | 274 kts | 74° |
| 2026-05-01 14:55 | 50.10296 | 8.87082 | 8899 ft | 276 kts | 74° |
| 2026-05-01 14:55 | 50.10575 | 8.88324 | 9224 ft | 277 kts | 73° |
| 2026-05-01 14:55 | 50.11104 | 8.90689 | 9852 ft | 279 kts | 73° |
| 2026-05-01 14:56 | 50.11585 | 8.92878 | 10384 ft | 283 kts | 74° |
| 2026-05-01 14:56 | 50.12106 | 8.95242 | 10749 ft | 293 kts | 74° |
| 2026-05-01 14:56 | 50.12749 | 8.98168 | 11148 ft | 305 kts | 74° |
| 2026-05-01 14:56 | 50.13436 | 9.01351 | 11570 ft | 316 kts | 74° |
| 2026-05-01 14:57 | 50.14149 | 9.04685 | 12003 ft | 328 kts | 75° |
| 2026-05-01 14:57 | 50.14504 | 9.11403 | 13548 ft | 301 kts | 104° |
| 2026-05-01 14:57 | 50.13792 | 9.14282 | 14087 ft | 297 kts | 121° |
| 2026-05-01 14:58 | 50.12454 | 9.16683 | 14664 ft | 298 kts | 141° |
| 2026-05-01 14:58 | 50.10753 | 9.18172 | 15087 ft | 299 kts | 159° |
| 2026-05-01 14:58 | 50.08693 | 9.18706 | 15310 ft | 303 kts | 179° |
| 2026-05-01 14:58 | 50.06632 | 9.18014 | 15323 ft | 308 kts | 201° |
| 2026-05-01 14:59 | 50.04861 | 9.16101 | 15318 ft | 315 kts | 224° |
| 2026-05-01 14:59 | 50.03564 | 9.13328 | 15313 ft | 318 kts | 236° |
| 2026-05-01 14:59 | 50.02397 | 9.10386 | 15310 ft | 319 kts | 236° |
| 2026-05-01 14:59 | 50.01215 | 9.07442 | 15308 ft | 320 kts | 235° |
| 2026-05-01 15:00 | 49.98863 | 9.01651 | 15135 ft | 318 kts | 236° |
| 2026-05-01 15:00 | 49.97940 | 8.98438 | 14491 ft | 329 kts | 250° |
| 2026-05-01 15:00 | 49.97289 | 8.94850 | 13793 ft | 371 kts | 253° |
| 2026-05-01 15:01 | 49.96618 | 8.90828 | 13251 ft | 396 kts | 253° |
| 2026-05-01 15:01 | 49.95924 | 8.86649 | 13033 ft | 400 kts | 253° |
| 2026-05-01 15:01 | 49.95228 | 8.82468 | 12520 ft | 401 kts | 253° |
| 2026-05-01 15:01 | 49.94529 | 8.78267 | 11746 ft | 400 kts | 253° |
| 2026-05-01 15:02 | 49.93842 | 8.74109 | 11244 ft | 392 kts | 253° |
| 2026-05-01 15:02 | 49.93400 | 8.71420 | 11066 ft | 383 kts | 253° |
| 2026-05-01 15:02 | 49.92540 | 8.66193 | 10708 ft | 365 kts | 253° |
| 2026-05-01 15:02 | 49.91923 | 8.62437 | 10428 ft | 354 kts | 253° |
| 2026-05-01 15:03 | 49.91336 | 8.58816 | 10209 ft | 330 kts | 253° |
| 2026-05-01 15:03 | 49.90822 | 8.55555 | 9979 ft | 305 kts | 254° |
| 2026-05-01 15:03 | 49.90320 | 8.52386 | 9252 ft | 299 kts | 253° |
| 2026-05-01 15:03 | 49.89826 | 8.49272 | 8558 ft | 295 kts | 253° |
| 2026-05-01 15:04 | 49.89330 | 8.46204 | 8207 ft | 291 kts | 253° |
| 2026-05-01 15:04 | 49.88859 | 8.43224 | 7892 ft | 286 kts | 254° |
| 2026-05-01 15:04 | 49.88388 | 8.40254 | 7491 ft | 283 kts | 253° |
| 2026-05-01 15:04 | 49.87922 | 8.37303 | 7124 ft | 280 kts | 253° |
| 2026-05-01 15:05 | 49.87465 | 8.34408 | 6721 ft | 279 kts | 253° |
| 2026-05-01 15:05 | 49.87005 | 8.31501 | 6344 ft | 277 kts | 253° |
| 2026-05-01 15:05 | 49.86540 | 8.28599 | 5925 ft | 276 kts | 253° |
| 2026-05-01 15:05 | 49.86078 | 8.25720 | 5543 ft | 275 kts | 253° |
| 2026-05-01 15:06 | 49.85624 | 8.22840 | 5151 ft | 273 kts | 253° |
| 2026-05-01 15:06 | 49.85176 | 8.19984 | 5009 ft | 272 kts | 253° |
| 2026-05-01 15:06 | 49.84755 | 8.17142 | 4981 ft | 273 kts | 257° |
| 2026-05-01 15:06 | 49.84693 | 8.14172 | 4991 ft | 279 kts | 275° |
| 2026-05-01 15:07 | 49.85352 | 8.11352 | 4990 ft | 282 kts | 302° |
| 2026-05-01 15:07 | 49.86784 | 8.09302 | 4820 ft | 282 kts | 333° |
| 2026-05-01 15:07 | 49.88649 | 8.08685 | 4505 ft | 271 kts | 8° |
| 2026-05-01 15:07 | 49.90307 | 8.09700 | 4277 ft | 252 kts | 44° |
| 2026-05-01 15:08 | 49.91302 | 8.11790 | 4104 ft | 237 kts | 68° |
| 2026-05-01 15:08 | 49.92094 | 8.13957 | 3987 ft | 230 kts | 55° |
| 2026-05-01 15:08 | 49.93100 | 8.15797 | 3998 ft | 231 kts | 53° |
| 2026-05-01 15:08 | 49.93999 | 8.17684 | 3997 ft | 229 kts | 63° |
| 2026-05-01 15:09 | 49.94640 | 8.19792 | 4007 ft | 228 kts | 72° |
| 2026-05-01 15:09 | 49.95164 | 8.22127 | 3992 ft | 226 kts | 75° |
| 2026-05-01 15:09 | 49.95668 | 8.24386 | 4001 ft | 226 kts | 73° |
| 2026-05-01 15:09 | 49.96215 | 8.26653 | 3892 ft | 229 kts | 72° |
| 2026-05-01 15:10 | 49.96777 | 8.28860 | 3585 ft | 218 kts | 71° |
| 2026-05-01 15:10 | 49.97815 | 8.32893 | 3033 ft | 186 kts | 71° |
| 2026-05-01 15:10 | 49.98259 | 8.34665 | 2825 ft | 173 kts | 71° |
| 2026-05-01 15:11 | 49.98682 | 8.36354 | 2594 ft | 158 kts | 71° |
| 2026-05-01 15:11 | 49.99378 | 8.39265 | 2270 ft | 136 kts | 74° |
| 2026-05-01 15:11 | 49.99712 | 8.40662 | 2088 ft | 141 kts | 73° |
| 2026-05-01 15:12 | 50.00041 | 8.42031 | 1868 ft | 143 kts | 73° |
| 2026-05-01 15:12 | 50.00624 | 8.44472 | 1558 ft | 138 kts | 73° |
| 2026-05-01 15:12 | 50.00914 | 8.45690 | 1411 ft | 140 kts | 72° |
| 2026-05-01 15:13 | 50.01881 | 8.49742 | 838 ft | 138 kts | 72° |
| 2026-05-01 15:14 | 50.02456 | 8.52154 | 563 ft | 139 kts | 71° |
| 2026-05-01 15:14 | 50.02696 | 8.53153 | 401 ft | 136 kts | 72° |
| 2026-05-01 15:14 | 50.03194 | 8.55256 | 361 ft | 97 kts | 69° |
| 2026-05-01 15:15 | 50.03515 | 8.56596 | 370 ft | 50 kts | 69° |
| 2026-05-01 15:15 | 50.03659 | 8.57201 | 369 ft | 27 kts | 70° |
| 2026-05-01 15:16 | 50.03756 | 8.57611 | 377 ft | 21 kts | 70° |